createdAt,value
2022-12-31T00:00:21.658Z,22.73
2022-12-31T00:03:45.630Z,23.75
2022-12-31T00:06:48.681Z,24.15
2022-12-31T00:09:51.524Z,24.83
2022-12-31T00:12:54.477Z,22.05
2022-12-31T00:16:12.048Z,22.27
2022-12-31T00:19:15.431Z,20.30
2022-12-31T00:22:18.310Z,19.65
2022-12-31T00:25:21.232Z,20.98
2022-12-31T00:28:24.088Z,20.85
2022-12-31T00:31:32.571Z,20.25
2022-12-31T00:34:35.683Z,19.40
2022-12-31T00:37:38.574Z,17.30
2022-12-31T00:40:41.459Z,17.67
2022-12-31T00:43:44.969Z,18.55
2022-12-31T00:46:48.522Z,20.98
2022-12-31T00:52:54.021Z,17.50
2022-12-31T00:56:05.463Z,18.98
2022-12-31T00:59:08.533Z,19.77
2022-12-31T01:02:11.613Z,20.58
2022-12-31T01:05:14.697Z,19.42
2022-12-31T01:08:18.100Z,20.58
2022-12-31T01:11:24.284Z,21.75
2022-12-31T01:14:27.261Z,20.60
2022-12-31T01:17:30.078Z,21.58
2022-12-31T01:20:38.245Z,23.48
2022-12-31T01:23:42.153Z,22.23
2022-12-31T01:26:45.371Z,23.55
2022-12-31T01:29:48.567Z,24.63
2022-12-31T01:32:51.417Z,23.83
2022-12-31T01:35:54.238Z,22.40
2022-12-31T01:39:00.324Z,21.55
2022-12-31T01:42:03.192Z,21.48
2022-12-31T01:45:12.035Z,20.77
2022-12-31T01:48:19.685Z,23.48
2022-12-31T01:51:23.749Z,24.42
2022-12-31T01:54:29.165Z,21.23
2022-12-31T01:57:32.468Z,21.33
2022-12-31T02:00:35.664Z,21.23
2022-12-31T02:03:39.019Z,22.23
2022-12-31T02:06:47.288Z,21.55
2022-12-31T02:09:50.836Z,20.00
2022-12-31T02:12:53.571Z,21.70
2022-12-31T02:16:17.465Z,21.80
2022-12-31T02:19:25.957Z,19.83
2022-12-31T02:22:47.869Z,19.15
2022-12-31T02:26:13.240Z,20.55
2022-12-31T02:29:34.819Z,19.23
2022-12-31T02:32:48.386Z,20.77
2022-12-31T02:35:59.679Z,20.77
2022-12-31T02:39:04.314Z,19.60
2022-12-31T02:42:07.536Z,19.40
2022-12-31T02:45:18.279Z,21.33
2022-12-31T02:48:35.421Z,19.73
2022-12-31T02:51:45.783Z,21.35
2022-12-31T02:55:14.097Z,19.52
2022-12-31T02:59:05.694Z,21.37
2022-12-31T03:02:13.956Z,22.25
2022-12-31T03:05:20.680Z,22.10
2022-12-31T03:08:25.697Z,21.87
2022-12-31T03:11:47.223Z,21.87
2022-12-31T03:14:50.962Z,22.65
2022-12-31T03:18:04.253Z,21.50
2022-12-31T03:21:43.509Z,23.30
2022-12-31T03:25:04.877Z,21.58
2022-12-31T03:28:13.133Z,22.25
2022-12-31T03:31:16.491Z,23.12
2022-12-31T03:34:19.779Z,24.80
2022-12-31T03:37:22.355Z,25.23
2022-12-31T03:40:28.481Z,25.75
2022-12-31T03:43:31.033Z,24.05
2022-12-31T03:46:34.196Z,23.80
2022-12-31T03:49:37.076Z,23.35
2022-12-31T03:52:40.794Z,25.92
2022-12-31T03:55:43.391Z,24.35
2022-12-31T03:58:46.469Z,24.27
2022-12-31T04:01:49.023Z,24.17
2022-12-31T04:04:52.386Z,24.75
2022-12-31T04:07:55.851Z,23.33
2022-12-31T04:10:58.959Z,23.62
2022-12-31T04:14:01.470Z,24.57
2022-12-31T04:17:04.623Z,25.20
2022-12-31T04:20:07.907Z,26.07
2022-12-31T04:23:11.085Z,24.55
2022-12-31T04:26:13.637Z,26.20
2022-12-31T04:29:16.925Z,24.17
2022-12-31T04:32:19.644Z,25.37
2022-12-31T04:35:22.766Z,26.95
2022-12-31T04:38:25.295Z,26.83
2022-12-31T04:41:28.454Z,26.00
2022-12-31T04:44:31.725Z,28.47
2022-12-31T04:47:34.804Z,27.87
2022-12-31T04:50:37.395Z,28.97
2022-12-31T04:53:41.174Z,27.52
2022-12-31T04:56:44.176Z,25.62
2022-12-31T04:59:47.408Z,25.70
2022-12-31T05:02:50.603Z,27.73
2022-12-31T05:05:54.863Z,28.73
2022-12-31T05:08:57.461Z,28.60
2022-12-31T05:12:00.749Z,25.12
2022-12-31T05:15:03.481Z,24.90
2022-12-31T05:21:15.417Z,26.02
2022-12-31T05:24:18.478Z,25.33
2022-12-31T05:27:21.256Z,27.47
2022-12-31T05:33:26.908Z,27.13
2022-12-31T05:36:30.009Z,28.38
2022-12-31T05:39:32.513Z,28.93
2022-12-31T05:42:35.619Z,30.12
2022-12-31T05:45:38.393Z,30.93
2022-12-31T05:51:44.055Z,30.20
2022-12-31T05:54:47.191Z,29.27
2022-12-31T05:57:49.724Z,29.27
2022-12-31T06:00:53.196Z,31.23
2022-12-31T06:03:56.097Z,29.23
2022-12-31T06:06:58.904Z,30.62
2022-12-31T06:10:01.969Z,30.67
2022-12-31T06:13:05.262Z,31.12
2022-12-31T06:16:09.692Z,32.50
2022-12-31T06:19:12.596Z,30.70
2022-12-31T06:22:16.180Z,29.75
2022-12-31T06:25:19.364Z,28.33
2022-12-31T06:28:22.452Z,28.48
2022-12-31T06:31:25.274Z,27.90
2022-12-31T06:34:28.147Z,29.85
2022-12-31T06:37:30.936Z,27.90
2022-12-31T06:40:37.966Z,28.30
2022-12-31T06:43:42.802Z,25.30
2022-12-31T06:46:45.819Z,27.42
2022-12-31T06:49:48.734Z,25.65
2022-12-31T06:52:51.573Z,28.90
2022-12-31T06:55:55.120Z,26.87
2022-12-31T06:58:58.549Z,26.90
2022-12-31T07:02:14.602Z,27.83
2022-12-31T07:05:39.515Z,28.10
2022-12-31T07:08:42.275Z,27.55
2022-12-31T07:11:52.603Z,26.55
2022-12-31T07:15:06.330Z,27.45
2022-12-31T07:21:18.347Z,27.20
2022-12-31T07:24:21.707Z,27.50
2022-12-31T07:27:45.701Z,26.40
2022-12-31T07:31:03.767Z,28.20
2022-12-31T07:34:25.101Z,28.50
2022-12-31T07:37:39.964Z,30.40
2022-12-31T07:41:09.423Z,32.58
2022-12-31T07:44:35.324Z,28.45
2022-12-31T07:47:38.520Z,27.00
2022-12-31T07:50:41.594Z,28.70
2022-12-31T07:53:44.449Z,31.27
2022-12-31T07:56:48.399Z,29.52
2022-12-31T08:00:08.245Z,28.27
2022-12-31T08:06:30.363Z,28.25
2022-12-31T08:09:41.920Z,28.65
2022-12-31T08:12:46.857Z,25.90
2022-12-31T08:15:49.602Z,28.33
2022-12-31T08:18:53.202Z,29.30
2022-12-31T08:22:04.844Z,26.00
2022-12-31T08:25:19.337Z,28.75
2022-12-31T08:28:39.550Z,29.12
2022-12-31T08:32:07.764Z,30.58
2022-12-31T08:35:40.809Z,29.40
2022-12-31T08:38:54.971Z,27.92
2022-12-31T08:45:37.775Z,29.25
2022-12-31T08:48:43.863Z,30.88
2022-12-31T08:51:47.281Z,31.15
2022-12-31T08:54:50.177Z,33.35
2022-12-31T09:01:19.124Z,33.40
2022-12-31T09:04:40.750Z,34.28
2022-12-31T09:08:15.319Z,35.05
2022-12-31T09:11:28.201Z,32.58
2022-12-31T09:14:47.448Z,33.85
2022-12-31T09:17:52.270Z,33.00
2022-12-31T09:20:55.064Z,35.58
2022-12-31T09:27:35.169Z,33.00
2022-12-31T09:30:47.269Z,32.65
2022-12-31T09:34:02.132Z,34.42
2022-12-31T09:37:44.334Z,35.83
2022-12-31T09:41:08.841Z,33.70
2022-12-31T09:44:17.933Z,34.78
2022-12-31T09:47:23.803Z,33.42
2022-12-31T09:50:32.862Z,35.67
2022-12-31T09:54:05.233Z,35.05
2022-12-31T09:57:37.176Z,35.85
2022-12-31T10:00:59.938Z,34.17
2022-12-31T10:04:14.070Z,31.95
2022-12-31T10:07:34.942Z,34.15
2022-12-31T10:10:57.903Z,32.80
2022-12-31T10:14:26.975Z,33.10
2022-12-31T10:17:38.208Z,32.50
2022-12-31T10:21:23.406Z,31.10
2022-12-31T10:24:32.789Z,32.15
2022-12-31T10:27:53.636Z,32.97
2022-12-31T10:31:17.236Z,34.13
2022-12-31T10:35:13.960Z,34.47
2022-12-31T10:38:50.915Z,32.67
2022-12-31T10:41:59.335Z,33.42
2022-12-31T10:45:14.610Z,32.38
2022-12-31T10:48:33.785Z,32.45
2022-12-31T10:51:50.909Z,31.67
2022-12-31T10:55:10.416Z,35.67
2022-12-31T10:58:39.927Z,33.50
2022-12-31T11:01:54.372Z,34.20
2022-12-31T11:05:03.289Z,34.28
2022-12-31T11:08:33.148Z,36.53
2022-12-31T11:11:58.321Z,34.70
2022-12-31T11:15:23.078Z,34.85
2022-12-31T11:18:26.092Z,37.03
2022-12-31T11:21:39.390Z,37.13
2022-12-31T11:25:19.156Z,37.40
2022-12-31T11:29:03.838Z,35.53
2022-12-31T11:32:26.947Z,36.03
2022-12-31T11:35:41.615Z,36.63
2022-12-31T11:39:00.368Z,35.05
2022-12-31T11:42:21.362Z,35.88
2022-12-31T11:45:50.870Z,36.40
2022-12-31T11:49:08.600Z,35.72
2022-12-31T11:52:36.197Z,36.63
2022-12-31T11:56:06.365Z,33.97
2022-12-31T11:59:18.866Z,35.92
2022-12-31T12:02:32.319Z,34.72
2022-12-31T12:05:36.502Z,35.45
2022-12-31T12:08:40.630Z,32.63
2022-12-31T12:11:43.953Z,34.90
2022-12-31T12:14:52.654Z,34.88
2022-12-31T12:18:08.141Z,34.72
2022-12-31T12:21:11.959Z,34.42
2022-12-31T12:24:29.116Z,34.45
2022-12-31T12:27:34.634Z,35.25
2022-12-31T12:30:41.357Z,35.85
2022-12-31T12:33:46.370Z,36.42
2022-12-31T12:36:50.103Z,36.95
2022-12-31T12:40:02.235Z,36.55
2022-12-31T12:43:06.995Z,36.13
2022-12-31T12:46:30.436Z,37.25
2022-12-31T12:49:46.014Z,37.60
2022-12-31T12:53:13.035Z,37.92
2022-12-31T12:56:51.589Z,36.70
2022-12-31T13:00:03.578Z,38.33
2022-12-31T13:04:07.284Z,38.75
2022-12-31T13:07:27.115Z,38.20
2022-12-31T13:13:45.841Z,36.10
2022-12-31T13:17:07.189Z,36.88
2022-12-31T13:20:23.471Z,37.03
2022-12-31T13:23:33.610Z,37.42
2022-12-31T13:26:38.811Z,36.42
2022-12-31T13:29:44.263Z,35.08
2022-12-31T13:32:51.713Z,36.17
2022-12-31T13:36:00.525Z,36.10
2022-12-31T13:39:12.307Z,36.50
2022-12-31T13:42:22.219Z,35.90
2022-12-31T13:45:33.214Z,35.55
2022-12-31T13:48:47.244Z,37.05
2022-12-31T13:51:53.523Z,36.58
2022-12-31T13:55:21.469Z,35.03
2022-12-31T13:58:46.279Z,37.72
2022-12-31T14:01:56.318Z,34.83
2022-12-31T14:05:17.748Z,34.65
2022-12-31T14:08:20.741Z,34.65
2022-12-31T14:11:42.444Z,36.85
2022-12-31T14:15:07.097Z,35.67
2022-12-31T14:18:18.651Z,34.92
2022-12-31T14:21:34.118Z,35.67
2022-12-31T14:24:43.245Z,34.85
2022-12-31T14:27:48.286Z,33.78
2022-12-31T14:30:58.950Z,34.55
2022-12-31T14:34:33.729Z,33.42
2022-12-31T14:38:01.686Z,33.28
2022-12-31T14:41:26.493Z,33.85
2022-12-31T14:44:44.102Z,31.30
2022-12-31T14:47:52.952Z,31.30
2022-12-31T14:50:59.005Z,34.20
2022-12-31T14:54:02.177Z,30.37
2022-12-31T14:57:17.003Z,31.15
2022-12-31T15:00:39.931Z,33.47
2022-12-31T15:03:46.100Z,31.33
2022-12-31T15:06:58.468Z,30.37
2022-12-31T15:10:07.435Z,30.25
2022-12-31T15:13:28.020Z,30.30
2022-12-31T15:16:52.604Z,30.27
2022-12-31T15:20:03.651Z,30.00
2022-12-31T15:23:34.466Z,31.50
2022-12-31T15:26:37.415Z,29.92
2022-12-31T15:29:45.485Z,30.08
2022-12-31T15:32:48.453Z,29.08
2022-12-31T15:35:54.126Z,29.83
2022-12-31T15:39:26.338Z,31.08
2022-12-31T15:42:49.175Z,28.60
2022-12-31T15:45:56.545Z,30.05
2022-12-31T15:49:20.291Z,28.60
2022-12-31T15:52:30.289Z,26.73
2022-12-31T15:55:38.775Z,26.15
2022-12-31T15:58:44.681Z,27.27
2022-12-31T16:01:48.668Z,27.83
2022-12-31T16:04:55.609Z,27.75
2022-12-31T16:07:59.600Z,28.95
2022-12-31T16:11:08.397Z,27.70
2022-12-31T16:14:38.584Z,29.15
2022-12-31T16:17:41.892Z,30.17
2022-12-31T16:20:48.511Z,29.23
2022-12-31T16:23:53.765Z,29.73
2022-12-31T16:26:59.868Z,28.05
2022-12-31T16:30:18.265Z,30.62
2022-12-31T16:33:21.090Z,28.33
2022-12-31T16:39:39.382Z,28.52
2022-12-31T16:42:44.571Z,29.83
2022-12-31T16:45:47.358Z,28.42
2022-12-31T16:49:12.628Z,29.35
2022-12-31T16:52:41.643Z,30.60
2022-12-31T16:55:54.048Z,30.85
2022-12-31T16:59:03.434Z,29.65
2022-12-31T17:02:32.797Z,31.67
2022-12-31T17:06:14.849Z,30.60
2022-12-31T17:09:21.201Z,30.35
2022-12-31T17:12:24.973Z,31.90
2022-12-31T17:15:38.715Z,31.23
2022-12-31T17:18:44.453Z,36.13
2022-12-31T17:21:48.736Z,31.83
2022-12-31T17:24:52.325Z,32.33
2022-12-31T17:28:08.060Z,31.70
2022-12-31T17:31:40.976Z,33.17
2022-12-31T17:34:51.310Z,32.47
2022-12-31T17:37:53.841Z,33.58
2022-12-31T17:41:06.286Z,32.17
2022-12-31T17:44:22.591Z,34.42
2022-12-31T17:47:34.778Z,31.90
2022-12-31T17:50:50.225Z,35.50
2022-12-31T17:53:53.490Z,38.40
2022-12-31T18:03:02.938Z,36.22
2022-12-31T18:06:09.177Z,36.20
2022-12-31T18:09:16.622Z,36.20
2022-12-31T18:12:20.197Z,36.22
2022-12-31T18:15:24.835Z,34.42
2022-12-31T18:18:30.654Z,34.80
2022-12-31T18:21:34.761Z,34.45
2022-12-31T18:24:37.909Z,35.40
2022-12-31T18:27:42.064Z,35.70
2022-12-31T18:30:48.400Z,37.45
2022-12-31T18:33:52.597Z,35.33
2022-12-31T18:36:55.878Z,35.55
2022-12-31T18:39:58.502Z,36.80
2022-12-31T18:43:05.112Z,37.60
2022-12-31T18:46:15.278Z,39.92
2022-12-31T18:49:18.761Z,38.45
2022-12-31T18:52:23.371Z,37.80
2022-12-31T18:55:42.929Z,40.22
2022-12-31T18:58:46.627Z,42.47
2022-12-31T19:01:49.831Z,43.92
2022-12-31T19:04:52.574Z,40.20
2022-12-31T19:07:56.467Z,44.00
2022-12-31T19:10:59.069Z,46.15
2022-12-31T19:14:03.012Z,44.60
2022-12-31T19:20:07.577Z,47.25
2022-12-31T19:23:19.215Z,48.92
2022-12-31T19:26:25.265Z,51.25
2022-12-31T19:29:28.974Z,50.38
2022-12-31T19:32:32.084Z,52.67
2022-12-31T19:35:34.651Z,51.23
2022-12-31T19:38:37.737Z,61.00
2022-12-31T19:41:43.064Z,60.07
2022-12-31T19:44:46.157Z,56.25
2022-12-31T19:47:49.277Z,68.77
2022-12-31T19:50:54.858Z,86.87
2022-12-31T19:53:57.415Z,86.80
2022-12-31T19:57:00.507Z,93.53
2022-12-31T20:00:03.643Z,84.63
2022-12-31T20:03:15.517Z,77.05
2022-12-31T20:06:19.761Z,80.30
2022-12-31T20:09:22.806Z,78.43
2022-12-31T20:12:25.733Z,79.18
2022-12-31T20:15:28.641Z,78.65
2022-12-31T20:18:31.529Z,74.32
2022-12-31T20:21:34.451Z,82.60
2022-12-31T20:24:37.251Z,83.32
2022-12-31T20:27:40.150Z,84.18
2022-12-31T20:30:42.994Z,86.65
2022-12-31T20:33:45.949Z,80.72
2022-12-31T20:36:48.855Z,80.85
2022-12-31T20:39:51.880Z,82.93
2022-12-31T20:42:54.765Z,82.15
2022-12-31T20:45:57.823Z,79.25
2022-12-31T20:49:03.241Z,78.05
2022-12-31T20:52:06.419Z,86.45
2022-12-31T20:55:11.216Z,78.07
2022-12-31T20:58:14.093Z,67.47
2022-12-31T21:01:17.443Z,71.35
2022-12-31T21:04:20.488Z,69.90
2022-12-31T21:07:23.919Z,72.15
2022-12-31T21:10:26.745Z,79.85
2022-12-31T21:13:31.158Z,82.53
2022-12-31T21:16:34.435Z,86.55
2022-12-31T21:19:37.200Z,85.00
2022-12-31T21:22:40.151Z,91.55
2022-12-31T21:25:43.996Z,84.28
2022-12-31T21:28:47.027Z,83.07
2022-12-31T21:31:50.057Z,83.70
2022-12-31T21:35:14.959Z,78.43
2022-12-31T21:38:15.819Z,75.62
2022-12-31T21:41:37.314Z,68.65
2022-12-31T21:44:40.195Z,67.95
2022-12-31T21:48:01.585Z,69.07
2022-12-31T21:51:08.303Z,67.60
2022-12-31T21:54:31.050Z,67.37
2022-12-31T21:57:51.888Z,70.80
2022-12-31T22:01:17.007Z,62.28
2022-12-31T22:04:59.938Z,60.67
2022-12-31T22:07:43.123Z,59.17
2022-12-31T22:10:52.111Z,58.83
2022-12-31T22:13:56.248Z,57.42
2022-12-31T22:20:26.355Z,57.25
2022-12-31T22:23:24.484Z,60.08
2022-12-31T22:26:29.024Z,57.67
2022-12-31T22:29:31.998Z,58.83
2022-12-31T22:32:35.076Z,59.08
2022-12-31T22:35:37.884Z,67.53
2022-12-31T22:38:40.820Z,79.25
2022-12-31T22:41:43.720Z,79.70
2022-12-31T22:44:46.676Z,92.75
2022-12-31T22:47:49.449Z,125.25
2022-12-31T22:50:58.452Z,150.38
2022-12-31T22:54:01.372Z,180.95
2022-12-31T22:57:04.201Z,181.77
2022-12-31T23:00:12.813Z,178.20
2022-12-31T23:03:16.170Z,155.52
2022-12-31T23:06:20.639Z,131.77
2022-12-31T23:09:42.336Z,123.50
2022-12-31T23:12:45.208Z,109.07
2022-12-31T23:16:06.821Z,134.43
2022-12-31T23:19:28.611Z,164.02
2022-12-31T23:22:50.035Z,156.32
2022-12-31T23:25:52.989Z,150.60
2022-12-31T23:28:55.815Z,152.30
2022-12-31T23:31:58.835Z,164.98
2022-12-31T23:35:09.257Z,153.60
2022-12-31T23:38:13.750Z,146.77
2022-12-31T23:41:19.468Z,143.50
2022-12-31T23:44:22.417Z,144.95
2022-12-31T23:47:25.322Z,140.75
2022-12-31T23:50:28.352Z,111.43
2022-12-31T23:53:31.565Z,105.97
2022-12-31T23:56:34.804Z,96.85
2022-12-31T23:59:37.677Z,97.68
